Time;durP1;ratioP1;P1;durP2;ratioP2;P2;SDS_P1;SDS_P2;PMS_P1;PMS_P2;Temp;Humidity;BMP_temperature;BMP_pressure;BME280_temperature;BME280_humidity;BME280_pressure;Samples;Min_cycle;Max_cycle;Signal;HPM_P1;HPM_P2
2022/07/07 00:00:09;;;;;;;4.25;2.25;;;12.40;1.00;;;;;;5055514;28;20076;-84
2022/07/07 00:02:57;;;;;;;3.22;2.08;;;12.30;99.90;;;;;;5048495;28;20049;-84
2022/07/07 00:05:44;;;;;;;2.97;1.83;;;12.30;1.00;;;;;;5057183;28;20045;-85
2022/07/07 00:08:31;;;;;;;4.30;2.70;;;12.40;1.00;;;;;;5054146;28;20110;-86
2022/07/07 00:11:18;;;;;;;4.13;2.20;;;12.40;1.00;;;;;;5064627;28;20041;-83
2022/07/07 00:14:08;;;;;;;6.32;2.70;;;12.40;1.00;;;;;;5076536;28;20186;-86
2022/07/07 00:16:58;;;;;;;6.07;2.10;;;12.50;33.30;;;;;;5057036;28;20048;-87
2022/07/07 00:19:48;;;;;;;4.95;1.83;;;12.50;1.00;;;;;;5070719;28;20034;-86
2022/07/07 00:22:35;;;;;;;4.70;2.03;;;12.50;1.00;;;;;;5075378;28;20060;-85
2022/07/07 00:25:22;;;;;;;2.80;1.73;;;12.50;1.00;;;;;;5075540;28;20093;-85
2022/07/07 00:28:09;;;;;;;3.35;1.95;;;12.40;1.00;;;;;;5071356;28;20080;-82
2022/07/07 00:30:57;;;;;;;4.35;1.80;;;12.40;1.00;;;;;;5064345;28;20045;-84
2022/07/07 00:33:45;;;;;;;3.95;1.90;;;12.40;1.00;;;;;;5075330;28;20055;-85
2022/07/07 00:36:32;;;;;;;5.07;1.75;;;12.40;1.00;;;;;;5065710;28;20041;-84
2022/07/07 00:39:19;;;;;;;4.90;2.00;;;12.40;1.00;;;;;;5065463;28;20049;-85
2022/07/07 00:42:08;;;;;;;13.52;2.33;;;12.30;1.00;;;;;;5073263;28;20099;-85
2022/07/07 00:44:55;;;;;;;4.47;1.98;;;12.30;1.00;;;;;;5053324;28;20049;-85
2022/07/07 00:47:43;;;;;;;7.70;1.90;;;12.20;1.00;;;;;;5047579;28;20365;-85
2022/07/07 00:50:30;;;;;;;9.50;2.40;;;12.20;1.00;;;;;;5045809;28;20053;-85
2022/07/07 00:53:18;;;;;;;3.42;2.22;;;12.20;99.90;;;;;;5064567;28;20103;-87
2022/07/07 00:56:06;;;;;;;6.25;2.15;;;12.30;7.20;;;;;;5037594;28;20463;-86
2022/07/07 00:58:53;;;;;;;3.70;2.13;;;12.30;1.00;;;;;;5055587;28;20052;-86
2022/07/07 01:01:43;;;;;;;8.02;1.90;;;12.30;1.00;;;;;;5057879;28;20049;-86
2022/07/07 01:04:32;;;;;;;3.25;2.00;;;12.40;1.00;;;;;;5058571;28;20040;-88
2022/07/07 01:07:20;;;;;;;4.15;1.83;;;12.40;1.00;;;;;;5059029;28;20064;-86
2022/07/07 01:10:08;;;;;;;3.35;1.60;;;12.60;1.00;;;;;;5055701;28;20044;-86
2022/07/07 01:12:55;;;;;;;9.15;1.83;;;12.60;99.90;;;;;;5041676;28;20051;-86
2022/07/07 01:15:42;;;;;;;4.97;1.83;;;12.70;99.90;;;;;;5053012;28;20064;-86
2022/07/07 01:18:29;;;;;;;3.28;2.03;;;12.70;99.90;;;;;;5057984;28;20453;-86
2022/07/07 01:21:20;;;;;;;6.22;2.03;;;12.80;99.90;;;;;;5063868;28;20061;-87
2022/07/07 01:24:09;;;;;;;3.83;1.60;;;12.80;99.90;;;;;;5051769;28;20044;-86
2022/07/07 01:27:23;;;;;;;5.05;1.73;;;12.80;99.90;;;;;;5055864;28;20072;-87
2022/07/07 01:30:11;;;;;;;6.80;1.73;;;12.90;99.90;;;;;;5039984;28;20064;-87
2022/07/07 01:32:58;;;;;;;3.13;1.60;;;12.90;99.90;;;;;;5048545;28;20064;-85
2022/07/07 01:35:45;;;;;;;6.38;1.63;;;12.90;99.90;;;;;;5048229;28;20132;-85
2022/07/07 01:38:33;;;;;;;5.05;2.10;;;12.90;99.90;;;;;;5040046;28;20060;-85
2022/07/07 01:41:20;;;;;;;4.60;2.00;;;12.90;99.90;;;;;;5055651;28;20529;-85
2022/07/07 01:44:08;;;;;;;3.20;1.58;;;13.00;99.90;;;;;;5059268;28;20090;-84
2022/07/07 01:46:55;;;;;;;2.72;1.52;;;13.10;99.90;;;;;;5054341;28;20052;-85
2022/07/07 01:49:42;;;;;;;2.25;1.48;;;13.20;99.90;;;;;;5054520;28;20045;-84
2022/07/07 01:52:29;;;;;;;7.05;2.00;;;13.20;99.90;;;;;;5053363;28;20130;-83
2022/07/07 01:55:21;;;;;;;3.40;1.80;;;13.20;99.90;;;;;;5049770;28;20122;-86
2022/07/07 01:58:08;;;;;;;3.03;1.40;;;13.10;99.90;;;;;;5067846;28;20393;-85
2022/07/07 02:00:57;;;;;;;3.90;1.60;;;13.00;99.90;;;;;;5070886;28;20124;-84
2022/07/07 02:03:45;;;;;;;5.63;2.00;;;13.00;99.90;;;;;;5053846;28;20670;-86
2022/07/07 02:06:35;;;;;;;3.85;2.10;;;13.00;99.90;;;;;;5054857;28;20041;-86
2022/07/07 02:09:22;;;;;;;5.55;2.42;;;12.90;99.90;;;;;;5043365;28;20128;-85
2022/07/07 02:12:09;;;;;;;6.65;1.98;;;12.80;99.90;;;;;;5058730;28;20447;-85
2022/07/07 02:15:06;;;;;;;6.35;1.83;;;12.70;99.90;;;;;;5053498;28;20061;-85
2022/07/07 02:17:56;;;;;;;4.38;1.90;;;12.60;99.90;;;;;;5046623;28;20105;-85
2022/07/07 02:20:43;;;;;;;5.68;2.88;;;12.60;99.90;;;;;;5052055;28;20055;-83
2022/07/07 02:23:36;;;;;;;4.28;2.17;;;12.60;99.90;;;;;;5052115;28;20041;-85
2022/07/07 02:26:29;;;;;;;4.57;2.05;;;12.60;99.90;;;;;;5053766;28;20037;-87
2022/07/07 02:29:21;;;;;;;8.52;2.38;;;12.60;99.90;;;;;;5047941;28;20081;-86
2022/07/07 02:32:08;;;;;;;4.05;2.50;;;12.70;99.90;;;;;;5045964;28;20063;-87
2022/07/07 02:34:58;;;;;;;4.72;2.40;;;12.80;99.90;;;;;;5055751;28;20447;-86
2022/07/07 02:37:49;;;;;;;10.90;2.65;;;12.80;99.90;;;;;;5052072;28;20135;-85
2022/07/07 02:40:36;;;;;;;6.03;2.05;;;12.90;99.90;;;;;;5054497;28;20056;-85
2022/07/07 02:43:28;;;;;;;3.40;2.13;;;13.00;99.90;;;;;;5056238;28;20497;-85
2022/07/07 02:46:16;;;;;;;6.43;2.40;;;13.00;99.90;;;;;;5064095;28;20050;-86
2022/07/07 02:49:03;;;;;;;7.38;2.40;;;13.00;99.90;;;;;;5029403;28;20053;-85
2022/07/07 02:51:50;;;;;;;6.63;2.50;;;12.90;99.90;;;;;;5051786;28;20141;-85
2022/07/07 02:54:37;;;;;;;6.32;2.72;;;12.90;99.90;;;;;;5048605;28;20102;-84
2022/07/07 02:57:24;;;;;;;4.85;2.20;;;12.90;99.90;;;;;;5050460;28;20083;-84
2022/07/07 03:00:15;;;;;;;4.65;2.20;;;12.90;99.90;;;;;;5053750;28;20114;-85
2022/07/07 03:03:04;;;;;;;4.85;2.10;;;13.00;99.90;;;;;;5050229;28;20037;-84
2022/07/07 03:05:54;;;;;;;5.50;2.45;;;12.90;99.90;;;;;;5053055;28;20053;-85
2022/07/07 03:08:41;;;;;;;5.85;2.53;;;12.90;99.90;;;;;;5053717;28;20088;-87
2022/07/07 03:11:28;;;;;;;5.07;2.20;;;12.90;99.90;;;;;;5049822;28;20114;-86
2022/07/07 03:14:15;;;;;;;2.70;2.25;;;12.90;99.90;;;;;;5046301;28;20048;-86
2022/07/07 03:17:03;;;;;;;4.63;2.40;;;12.90;99.90;;;;;;5055662;28;20067;-87
2022/07/07 03:19:53;;;;;;;3.88;2.60;;;12.90;99.90;;;;;;5054670;28;20052;-87
2022/07/07 03:22:42;;;;;;;4.25;2.40;;;12.90;99.90;;;;;;5054092;28;20041;-86
2022/07/07 03:25:32;;;;;;;4.88;2.75;;;12.90;99.90;;;;;;5058194;28;20040;-85
2022/07/07 03:28:19;;;;;;;4.82;2.13;;;12.90;99.90;;;;;;5052779;28;20045;-86
2022/07/07 03:31:07;;;;;;;3.88;2.47;;;12.90;99.90;;;;;;5065457;28;20056;-86
2022/07/07 03:33:54;;;;;;;5.47;2.40;;;12.90;99.90;;;;;;5055772;28;20053;-87
2022/07/07 03:36:42;;;;;;;7.85;2.60;;;12.90;99.90;;;;;;5056342;28;20441;-85
2022/07/07 03:39:29;;;;;;;4.15;2.20;;;12.80;99.90;;;;;;5048871;28;20048;-87
2022/07/07 03:42:16;;;;;;;4.18;2.25;;;12.80;99.90;;;;;;5058376;28;20048;-86
2022/07/07 03:45:05;;;;;;;8.80;2.38;;;12.70;99.90;;;;;;5055353;28;20042;-86
2022/07/07 03:47:52;;;;;;;5.25;2.53;;;12.80;99.90;;;;;;5059378;28;20045;-85
2022/07/07 03:50:39;;;;;;;6.78;2.72;;;12.80;99.90;;;;;;5055745;28;20045;-85
2022/07/07 03:53:29;;;;;;;6.88;2.80;;;12.90;99.90;;;;;;5056612;28;20044;-85
2022/07/07 03:56:16;;;;;;;6.63;2.78;;;12.90;99.90;;;;;;5039186;28;20053;-86
2022/07/07 03:59:06;;;;;;;5.05;2.45;;;13.00;99.90;;;;;;5057700;28;20151;-85
2022/07/07 04:10:37;;;;;;;3.50;2.20;;;12.90;99.90;;;;;;5060882;28;20033;-88
2022/07/07 04:13:25;;;;;;;4.25;2.70;;;12.90;99.90;;;;;;5057979;28;20044;-85
2022/07/07 04:16:15;;;;;;;3.55;2.40;;;12.90;99.90;;;;;;5054258;28;20386;-86
2022/07/07 04:19:03;;;;;;;7.07;2.60;;;12.90;99.90;;;;;;5057048;28;20045;-85
2022/07/07 04:22:32;;;;;;;5.28;2.90;;;12.90;99.90;;;;;;5049122;28;20159;-82
2022/07/07 04:26:44;;;;;;;;;;;;;;;;;;;;;
2022/07/07 04:30:06;;;;;;;4.20;2.15;;;13.00;99.90;;;;;;4921008;29;20162;-85
2022/07/07 04:34:10;;;;;;;;;;;;;;;;;;;;;
2022/07/07 04:37:06;;;;;;;2.75;2.20;;;13.00;99.90;;;;;;4863072;29;20409;-84
2022/07/07 04:40:06;;;;;;;5.90;2.90;;;13.10;99.90;;;;;;4915917;29;20087;-88
2022/07/07 04:43:17;;;;;;;6.60;2.42;;;13.00;99.90;;;;;;4918551;29;20048;-87
2022/07/07 04:46:18;;;;;;;4.90;2.40;;;13.10;99.90;;;;;;4907590;29;20538;-86
2022/07/07 04:49:05;;;;;;;6.97;2.30;;;13.10;99.90;;;;;;4929502;28;20094;-86
2022/07/07 04:51:56;;;;;;;2.80;2.47;;;13.10;99.90;;;;;;4993907;28;20045;-88
2022/07/07 04:54:44;;;;;;;3.22;2.53;;;13.00;99.90;;;;;;4994867;28;20166;-88
2022/07/07 04:57:32;;;;;;;5.75;2.47;;;13.00;99.90;;;;;;4994109;28;20052;-88
2022/07/07 05:00:21;;;;;;;4.07;2.25;;;13.00;99.90;;;;;;5028144;28;20052;-87
2022/07/07 05:03:09;;;;;;;5.07;2.88;;;12.90;99.90;;;;;;5057643;28;20040;-87
2022/07/07 05:05:56;;;;;;;11.70;2.85;;;12.90;99.90;;;;;;5066157;28;20037;-86
2022/07/07 05:08:43;;;;;;;4.85;3.03;;;12.90;99.90;;;;;;5054256;28;20067;-87
2022/07/07 05:11:30;;;;;;;4.45;2.42;;;13.00;99.90;;;;;;5040357;28;20045;-90
2022/07/07 05:14:18;;;;;;;5.82;2.83;;;13.10;99.90;;;;;;5054744;28;20041;-88
2022/07/07 05:17:15;;;;;;;3.00;2.50;;;13.20;99.90;;;;;;5053975;28;20107;-89
2022/07/07 05:20:03;;;;;;;4.22;2.60;;;13.20;99.90;;;;;;5054304;28;20041;-84
2022/07/07 05:22:50;;;;;;;3.75;2.05;;;13.20;99.90;;;;;;5044699;28;20385;-84
2022/07/07 05:42:23;;;;;;;;;;;;;;;;;;;;;
2022/07/07 05:45:10;;;;;;;5.50;2.20;;;13.60;99.90;;;;;;4877086;29;20359;-89
2022/07/07 05:47:58;;;;;;;3.03;2.30;;;13.80;99.90;;;;;;4933535;28;20126;-82
2022/07/07 05:50:52;;;;;;;6.85;2.33;;;13.90;99.90;;;;;;5051953;28;20048;-84
2022/07/07 05:53:39;;;;;;;2.70;2.00;;;14.10;99.90;;;;;;5036998;28;20048;-83
2022/07/07 05:56:26;;;;;;;2.65;2.30;;;14.10;99.90;;;;;;5054516;28;20056;-87
2022/07/07 05:59:15;;;;;;;6.97;2.17;;;14.20;99.90;;;;;;5034192;28;20334;-87
2022/07/07 06:02:02;;;;;;;6.70;2.17;;;14.30;99.90;;;;;;5053675;28;20091;-86
2022/07/07 06:04:51;;;;;;;5.80;2.25;;;14.50;99.90;;;;;;5053067;28;20100;-83
2022/07/07 06:07:44;;;;;;;3.08;2.10;;;14.80;99.90;;;;;;5033364;28;20045;-82
2022/07/07 06:10:32;;;;;;;3.03;1.55;;;15.00;99.90;;;;;;5038572;28;20586;-82
2022/07/07 06:13:19;;;;;;;6.93;2.40;;;15.00;99.90;;;;;;5036947;28;20044;-83
2022/07/07 06:16:09;;;;;;;7.00;2.42;;;14.90;99.90;;;;;;5047903;28;20045;-84
2022/07/07 06:18:56;;;;;;;3.67;2.00;;;15.00;99.90;;;;;;5038680;28;20446;-83
2022/07/07 06:21:43;;;;;;;4.95;2.00;;;15.00;99.90;;;;;;5049195;28;20055;-82
2022/07/07 06:24:30;;;;;;;5.15;2.47;;;15.10;99.90;;;;;;5045526;28;20453;-87
2022/07/07 06:27:18;;;;;;;4.10;1.80;;;15.40;99.90;;;;;;5050056;28;20443;-85
2022/07/07 06:30:06;;;;;;;2.72;1.40;;;15.70;99.90;;;;;;5053893;28;20069;-85
2022/07/07 06:32:55;;;;;;;5.57;2.08;;;16.00;99.90;;;;;;5048262;28;20041;-88
2022/07/07 06:35:42;;;;;;;8.77;2.05;;;16.40;99.90;;;;;;5054972;28;20052;-85
2022/07/07 06:38:29;;;;;;;4.47;1.77;;;16.70;99.90;;;;;;5048872;28;20048;-85
2022/07/07 06:41:17;;;;;;;4.32;1.60;;;16.80;99.90;;;;;;5053577;28;20037;-89
2022/07/07 06:44:05;;;;;;;3.97;1.85;;;16.90;96.30;;;;;;5048612;28;20064;-87
2022/07/07 06:46:53;;;;;;;5.90;1.75;;;17.20;73.00;;;;;;5054434;28;20350;-85
2022/07/07 06:49:40;;;;;;;6.45;2.08;;;17.60;43.00;;;;;;5053852;28;20328;-89
2022/07/07 06:52:27;;;;;;;4.38;1.83;;;17.80;21.30;;;;;;5040411;28;20056;-91
2022/07/07 06:55:16;;;;;;;5.05;1.27;;;18.10;6.70;;;;;;5041001;28;20187;-89
2022/07/07 06:58:05;;;;;;;2.88;1.50;;;18.30;1.00;;;;;;5045894;28;20041;-87
2022/07/07 07:00:52;;;;;;;5.60;1.92;;;18.30;1.00;;;;;;5051952;28;20045;-85
2022/07/07 07:03:40;;;;;;;4.90;1.60;;;18.00;1.00;;;;;;5053280;28;20136;-87
2022/07/07 07:06:33;;;;;;;4.13;1.55;;;17.70;1.00;;;;;;5050020;28;20462;-87
2022/07/07 07:09:26;;;;;;;5.80;1.50;;;17.40;1.00;;;;;;5054150;28;20040;-85
2022/07/07 07:12:16;;;;;;;6.95;1.83;;;17.60;1.00;;;;;;5037833;28;20353;-84
2022/07/07 07:15:06;;;;;;;3.20;1.60;;;17.70;1.00;;;;;;5051959;28;20049;-86
2022/07/07 07:17:53;;;;;;;2.72;1.77;;;18.10;1.00;;;;;;5045015;28;20056;-84
2022/07/07 07:20:40;;;;;;;3.30;1.58;;;18.30;1.00;;;;;;5053360;28;20056;-87
2022/07/07 07:23:28;;;;;;;9.23;1.60;;;18.40;1.00;;;;;;5050892;28;20120;-86
2022/07/07 07:26:16;;;;;;;5.47;1.60;;;18.70;1.00;;;;;;5052060;28;20053;-91
2022/07/07 07:29:03;;;;;;;4.15;1.60;;;19.10;1.00;;;;;;5052631;28;20044;-89
2022/07/07 07:31:50;;;;;;;7.75;1.50;;;19.30;1.00;;;;;;5051067;28;20041;-88
2022/07/07 07:34:40;;;;;;;4.57;1.40;;;19.40;1.00;;;;;;5048219;28;20110;-86
2022/07/07 07:37:28;;;;;;;3.67;1.70;;;19.50;1.00;;;;;;5049675;28;20068;-88
2022/07/07 07:40:15;;;;;;;3.45;1.60;;;19.80;1.00;;;;;;5054474;28;20051;-86
2022/07/07 07:43:02;;;;;;;5.15;1.80;;;20.30;1.00;;;;;;5055275;28;20040;-86
2022/07/07 07:45:50;;;;;;;6.13;2.08;;;20.80;1.00;;;;;;5052320;28;20056;-87
2022/07/07 07:48:39;;;;;;;3.13;1.65;;;20.30;1.00;;;;;;5052253;28;20120;-87
2022/07/07 07:51:26;;;;;;;4.55;1.60;;;19.90;1.00;;;;;;5051318;28;20056;-87
2022/07/07 07:54:13;;;;;;;5.07;1.83;;;19.80;1.00;;;;;;5044869;28;20378;-87
2022/07/07 07:57:02;;;;;;;2.15;1.70;;;20.10;1.00;;;;;;5053860;28;20358;-85
2022/07/07 07:59:51;;;;;;;5.82;1.73;;;20.30;1.00;;;;;;5051598;28;20154;-86
2022/07/07 08:02:39;;;;;;;5.57;2.03;;;20.30;1.00;;;;;;5056500;28;20462;-87
2022/07/07 08:05:30;;;;;;;4.15;1.52;;;19.70;1.00;;;;;;5045826;28;20143;-88
2022/07/07 08:08:17;;;;;;;4.85;1.67;;;19.50;1.00;;;;;;5049947;28;20045;-86
2022/07/07 08:11:08;;;;;;;7.63;1.60;;;19.60;1.00;;;;;;5061551;28;20060;-84
2022/07/07 08:13:58;;;;;;;7.97;1.90;;;19.80;1.00;;;;;;5058205;28;20049;-85
2022/07/07 08:16:45;;;;;;;2.45;1.73;;;19.90;1.00;;;;;;5052465;28;20060;-88
2022/07/07 08:19:33;;;;;;;3.17;1.85;;;19.90;1.00;;;;;;5057550;28;20139;-86
2022/07/07 08:22:20;;;;;;;5.18;2.30;;;19.70;1.00;;;;;;5056323;28;20051;-90
2022/07/07 08:25:08;;;;;;;6.18;1.75;;;19.30;1.00;;;;;;5055542;28;20041;-86
2022/07/07 08:27:55;;;;;;;5.95;2.00;;;19.20;1.00;;;;;;5056226;28;20040;-89
2022/07/07 08:30:43;;;;;;;4.10;1.88;;;19.10;1.00;;;;;;5055942;28;20037;-87
2022/07/07 08:33:31;;;;;;;2.83;2.00;;;19.00;1.00;;;;;;5055918;28;20144;-85
2022/07/07 08:36:19;;;;;;;7.47;2.60;;;18.80;1.00;;;;;;5046211;28;20191;-88
2022/07/07 08:39:09;;;;;;;4.47;2.10;;;18.60;1.00;;;;;;5054934;28;20378;-86
2022/07/07 08:41:57;;;;;;;6.00;2.30;;;18.40;1.00;;;;;;5050851;28;20450;-88
2022/07/07 08:44:47;;;;;;;3.60;2.20;;;18.40;1.00;;;;;;5049817;28;20041;-86
2022/07/07 08:47:34;;;;;;;3.45;2.60;;;18.40;1.00;;;;;;5054877;28;20037;-86
2022/07/07 08:50:21;;;;;;;4.30;2.65;;;18.20;1.00;;;;;;5056035;28;20053;-87
2022/07/07 08:53:13;;;;;;;4.35;2.30;;;18.30;1.00;;;;;;5052409;28;20063;-88
2022/07/07 08:56:06;;;;;;;5.90;2.50;;;18.60;1.00;;;;;;5053550;28;20041;-87
2022/07/07 08:58:53;;;;;;;;;;;18.80;1.00;;;;;;5055295;28;20049;-87
2022/07/07 09:01:59;;;;;;;4.80;2.00;;;18.90;1.00;;;;;;5041831;28;19932;-87
2022/07/07 09:04:47;;;;;;;4.43;1.80;;;19.40;1.00;;;;;;5054949;28;20072;-90
2022/07/07 09:08:23;;;;;;;10.60;2.67;;;19.50;1.00;;;;;;5057688;28;20177;-88
2022/07/07 09:11:11;;;;;;;4.57;1.92;;;19.70;1.00;;;;;;5061768;28;20942;-87
2022/07/07 09:14:16;;;;;;;4.18;1.73;;;19.80;1.00;;;;;;5058774;28;20454;-86
2022/07/07 09:17:03;;;;;;;3.53;1.85;;;20.80;1.00;;;;;;5057007;28;20040;-86
2022/07/07 09:20:12;;;;;;;6.43;1.90;;;21.70;1.00;;;;;;5047237;28;20037;-86
2022/07/07 09:23:01;;;;;;;7.10;2.17;;;22.30;1.00;;;;;;5060496;28;20067;-85
2022/07/07 09:25:51;;;;;;;3.85;2.05;;;22.70;1.00;;;;;;5041786;28;20037;-86
2022/07/07 09:28:42;;;;;;;3.85;2.13;;;22.40;1.00;;;;;;5056683;28;20706;-88
2022/07/07 09:31:50;;;;;;;5.50;2.97;;;21.50;1.00;;;;;;5053820;28;20492;-84
2022/07/07 09:34:38;;;;;;;6.25;3.05;;;20.90;1.00;;;;;;5051273;28;20049;-86
2022/07/07 09:40:37;;;;;;;7.10;3.20;;;20.60;1.00;;;;;;5050643;28;20040;-85
2022/07/07 09:43:24;;;;;;;9.55;3.58;;;20.70;1.00;;;;;;5041093;28;20041;-86
2022/07/07 09:46:19;;;;;;;11.10;3.33;;;20.30;1.00;;;;;;5048514;28;20060;-85
2022/07/07 09:49:10;;;;;;;8.30;3.53;;;20.10;1.00;;;;;;5054138;28;20041;-87
2022/07/07 09:52:12;;;;;;;9.80;3.78;;;19.70;1.00;;;;;;5063711;28;20044;-86
2022/07/07 09:55:03;;;;;;;16.38;3.67;;;19.40;1.00;;;;;;5055113;28;20049;-86
2022/07/07 09:57:50;;;;;;;3.60;3.15;;;19.00;1.00;;;;;;5051898;28;20320;-87
2022/07/07 10:00:37;;;;;;;9.70;3.83;;;18.60;1.00;;;;;;5054650;28;20048;-85
2022/07/07 10:03:24;;;;;;;6.25;2.90;;;18.70;1.00;;;;;;5044626;28;20143;-84
2022/07/07 10:06:13;;;;;;;10.15;3.10;;;18.90;1.00;;;;;;5054649;28;20041;-85
2022/07/07 10:09:12;;;;;;;4.05;2.67;;;18.90;1.00;;;;;;5051740;28;20048;-85
2022/07/07 10:12:03;;;;;;;5.57;3.30;;;19.00;1.00;;;;;;5051607;28;20477;-85
2022/07/07 10:14:59;;;;;;;7.07;3.03;;;18.90;1.00;;;;;;5036782;28;20053;-85
2022/07/07 10:17:49;;;;;;;7.63;3.00;;;18.90;1.00;;;;;;5054030;28;20110;-88
2022/07/07 10:20:37;;;;;;;5.38;2.83;;;18.70;1.00;;;;;;5040602;28;20045;-90
2022/07/07 10:23:26;;;;;;;5.05;2.88;;;18.70;1.00;;;;;;5058197;28;20052;-88
2022/07/07 10:26:14;;;;;;;5.70;2.72;;;18.80;1.00;;;;;;5053777;28;20047;-88
2022/07/07 10:29:02;;;;;;;6.28;3.03;;;18.80;1.00;;;;;;5046431;28;20098;-90
2022/07/07 10:31:51;;;;;;;6.05;2.65;;;18.80;1.00;;;;;;5059991;28;20045;-91
2022/07/07 10:34:40;;;;;;;5.18;2.90;;;19.10;1.00;;;;;;5049383;28;20064;-88
2022/07/07 10:37:28;;;;;;;5.60;2.70;;;19.40;1.00;;;;;;5052616;28;20044;-87
2022/07/07 10:40:24;;;;;;;6.45;3.17;;;19.80;1.00;;;;;;5054582;28;20041;-84
2022/07/07 10:43:45;;;;;;;6.80;2.40;;;19.60;1.00;;;;;;5049790;28;20037;-85
2022/07/07 10:46:37;;;;;;;5.20;2.50;;;19.70;1.00;;;;;;5040263;28;20052;-86
2022/07/07 10:49:46;;;;;;;6.75;2.63;;;20.00;1.00;;;;;;5051124;28;20051;-84
2022/07/07 10:52:42;;;;;;;6.00;2.20;;;20.10;1.00;;;;;;5061067;28;20433;-85
2022/07/07 10:55:57;;;;;;;5.30;2.00;;;20.30;1.00;;;;;;5057288;28;20067;-84
2022/07/07 10:58:56;;;;;;;7.18;2.20;;;20.30;1.00;;;;;;5036227;28;20068;-84
2022/07/07 11:02:02;;;;;;;4.18;1.95;;;20.10;1.00;;;;;;5057907;28;20338;-89
2022/07/07 11:04:51;;;;;;;5.43;1.83;;;19.90;1.00;;;;;;5050653;28;20479;-84
2022/07/07 11:07:40;;;;;;;8.55;2.10;;;19.80;1.00;;;;;;5045287;28;20057;-84
2022/07/07 11:10:38;;;;;;;3.00;1.88;;;19.70;1.00;;;;;;5049622;28;20054;-84
2022/07/07 11:13:36;;;;;;;5.80;1.92;;;19.80;1.00;;;;;;5050695;28;20055;-82
2022/07/07 11:16:26;;;;;;;5.78;2.10;;;19.80;1.00;;;;;;5037144;28;20049;-84
2022/07/07 11:19:15;;;;;;;4.30;2.33;;;19.70;1.00;;;;;;5050129;28;20113;-83
2022/07/07 11:22:19;;;;;;;4.07;1.90;;;19.30;1.00;;;;;;5052103;28;20060;-82
2022/07/07 11:25:10;;;;;;;8.88;2.10;;;19.00;1.00;;;;;;5053471;28;20044;-83
2022/07/07 11:27:58;;;;;;;4.63;2.17;;;19.00;1.00;;;;;;5048599;28;20044;-85
2022/07/07 11:30:46;;;;;;;4.40;2.03;;;19.00;1.00;;;;;;5053799;28;20379;-84
2022/07/07 11:33:34;;;;;;;5.25;2.30;;;18.90;1.00;;;;;;5053537;28;20045;-84
2022/07/07 11:36:28;;;;;;;5.13;1.88;;;19.10;1.00;;;;;;5053127;28;20057;-86
2022/07/07 11:39:16;;;;;;;6.68;1.63;;;19.40;1.00;;;;;;5036223;28;20103;-84
2022/07/07 11:42:05;;;;;;;3.00;1.30;;;19.80;1.00;;;;;;5037923;28;20041;-84
2022/07/07 11:44:55;;;;;;;2.65;1.50;;;20.30;1.00;;;;;;5040805;28;20393;-83
2022/07/07 11:47:42;;;;;;;6.32;1.52;;;20.40;1.00;;;;;;5060850;28;20060;-86
2022/07/07 11:50:31;;;;;;;2.05;1.27;;;20.30;1.00;;;;;;5051121;28;20064;-83
2022/07/07 11:53:22;;;;;;;4.65;1.42;;;20.20;1.00;;;;;;5057967;28;20045;-83
2022/07/07 11:56:10;;;;;;;3.97;1.42;;;20.20;1.00;;;;;;5059477;28;20106;-85
2022/07/07 11:59:02;;;;;;;4.53;1.50;;;20.10;1.00;;;;;;5065962;28;20442;-84
2022/07/07 12:01:54;;;;;;;3.45;1.42;;;19.90;1.00;;;;;;5064774;28;20056;-86
2022/07/07 12:04:42;;;;;;;7.45;1.83;;;19.90;1.00;;;;;;5045157;28;20124;-86
2022/07/07 12:07:33;;;;;;;14.48;2.88;;;19.80;1.00;;;;;;5056240;28;20041;-85
2022/07/07 12:10:31;;;;;;;7.13;1.92;;;19.80;1.00;;;;;;5055389;28;20104;-85
2022/07/07 12:13:24;;;;;;;3.92;1.80;;;19.80;1.00;;;;;;5039119;28;20052;-87
2022/07/07 12:16:13;;;;;;;8.52;1.65;;;19.80;1.00;;;;;;5054222;28;20382;-85
2022/07/07 12:19:06;;;;;;;4.32;1.13;;;19.90;1.00;;;;;;5058180;28;20134;-85
2022/07/07 12:21:56;;;;;;;4.47;1.55;;;20.10;1.00;;;;;;5054386;28;20052;-84
2022/07/07 12:25:01;;;;;;;3.72;1.60;;;20.50;1.00;;;;;;5041001;28;20071;-84
2022/07/07 12:28:12;;;;;;;6.25;1.50;;;20.60;1.00;;;;;;5060536;28;20071;-86
2022/07/07 12:31:00;;;;;;;4.95;1.50;;;20.60;1.00;;;;;;5067142;28;20048;-85
2022/07/07 12:33:48;;;;;;;5.25;1.80;;;20.60;1.00;;;;;;5062918;28;20041;-85
2022/07/07 12:36:35;;;;;;;3.92;1.48;;;20.50;1.00;;;;;;5052276;28;20049;-88
2022/07/07 12:39:23;;;;;;;4.55;1.65;;;20.30;1.00;;;;;;5066975;28;20177;-84
2022/07/07 12:42:29;;;;;;;3.85;1.85;;;20.00;1.00;;;;;;5058431;28;20048;-85
2022/07/07 12:45:29;;;;;;;4.30;1.60;;;19.90;1.00;;;;;;5063474;28;20040;-85
2022/07/07 12:48:18;;;;;;;6.07;1.63;;;20.10;1.00;;;;;;5068740;28;20068;-84
2022/07/07 12:51:11;;;;;;;4.03;1.98;;;20.10;1.00;;;;;;5043040;28;20037;-84
2022/07/07 12:54:04;;;;;;;3.90;1.58;;;20.10;1.00;;;;;;5042950;28;20041;-85
2022/07/07 12:57:05;;;;;;;3.58;2.00;;;20.20;1.00;;;;;;5060615;28;20159;-86
2022/07/07 12:59:53;;;;;;;7.10;1.90;;;20.30;1.00;;;;;;5052366;28;20052;-87
2022/07/07 13:02:44;;;;;;;7.07;1.88;;;20.30;1.00;;;;;;5056180;28;20051;-84
2022/07/07 13:05:32;;;;;;;6.00;1.70;;;20.20;1.00;;;;;;5052892;28;20044;-85
2022/07/07 13:08:24;;;;;;;5.10;1.85;;;19.90;1.00;;;;;;5056699;28;20044;-86
2022/07/07 13:11:14;;;;;;;5.78;1.98;;;19.90;1.00;;;;;;5052869;28;20347;-86
2022/07/07 13:14:04;;;;;;;3.42;1.73;;;20.30;1.00;;;;;;5059006;28;20040;-85
2022/07/07 13:17:14;;;;;;;3.35;1.70;;;20.50;1.00;;;;;;5045620;28;20041;-86
2022/07/07 13:20:01;;;;;;;3.72;1.60;;;20.50;1.00;;;;;;5037137;28;20056;-84
2022/07/07 13:22:49;;;;;;;2.40;1.70;;;20.50;1.00;;;;;;5042507;28;20064;-87
2022/07/07 13:25:38;;;;;;;11.35;1.70;;;20.80;1.00;;;;;;5057885;28;20053;-87
2022/07/07 13:28:26;;;;;;;5.22;1.85;;;21.20;1.00;;;;;;5040474;28;20049;-84
2022/07/07 13:31:15;;;;;;;7.53;1.65;;;21.00;1.00;;;;;;5056340;28;20048;-87
2022/07/07 13:34:03;;;;;;;3.70;1.50;;;21.00;1.00;;;;;;5035671;28;20041;-84
2022/07/07 13:36:50;;;;;;;6.05;1.55;;;21.20;1.00;;;;;;5040062;28;20049;-82
2022/07/07 13:39:42;;;;;;;1.98;1.77;;;20.90;1.00;;;;;;5050578;28;20055;-82
2022/07/07 13:42:32;;;;;;;2.83;1.50;;;21.20;1.00;;;;;;5055727;28;20158;-85
2022/07/07 13:45:25;;;;;;;2.50;1.42;;;21.20;1.00;;;;;;5051731;28;20041;-86
2022/07/07 13:48:15;;;;;;;5.07;1.80;;;21.40;1.00;;;;;;5044913;28;20422;-84
2022/07/07 13:51:04;;;;;;;2.22;1.40;;;21.30;1.00;;;;;;5053586;28;20068;-83
2022/07/07 13:54:08;;;;;;;4.35;1.60;;;21.20;1.00;;;;;;5041340;28;20041;-87
2022/07/07 13:57:06;;;;;;;2.72;1.70;;;21.20;1.00;;;;;;5054604;28;20041;-88
2022/07/07 13:59:53;;;;;;;3.25;2.00;;;21.30;1.00;;;;;;5044345;28;20122;-85
2022/07/07 14:02:50;;;;;;;6.22;1.60;;;21.30;1.00;;;;;;5053034;28;20060;-87
2022/07/07 14:05:41;;;;;;;5.22;1.50;;;21.10;1.00;;;;;;5042529;28;20049;-86
2022/07/07 14:08:28;;;;;;;8.32;1.90;;;20.90;1.00;;;;;;5058117;28;20123;-84
2022/07/07 14:11:16;;;;;;;3.45;1.40;;;20.70;1.00;;;;;;5051995;28;20041;-86
2022/07/07 14:14:04;;;;;;;3.70;1.50;;;20.60;1.00;;;;;;5046538;28;20041;-84
2022/07/07 14:16:52;;;;;;;4.22;1.80;;;20.50;1.00;;;;;;5051164;28;20438;-86
2022/07/07 14:19:42;;;;;;;7.28;1.75;;;20.30;1.00;;;;;;5044994;28;20469;-84
2022/07/07 14:22:34;;;;;;;2.20;1.58;;;20.00;1.00;;;;;;5056907;28;20044;-87
2022/07/07 14:25:22;;;;;;;6.90;1.50;;;19.80;1.00;;;;;;5053427;28;20048;-86
2022/07/07 14:28:14;;;;;;;6.28;2.20;;;19.70;1.00;;;;;;5037028;28;20344;-83
2022/07/07 14:31:02;;;;;;;2.15;1.40;;;19.50;1.00;;;;;;5065414;28;20048;-84
2022/07/07 14:33:50;;;;;;;4.78;1.88;;;19.50;1.00;;;;;;5067672;28;20049;-85
2022/07/07 14:36:38;;;;;;;2.55;1.65;;;19.40;1.00;;;;;;5060116;28;20040;-84
2022/07/07 14:39:27;;;;;;;2.45;1.58;;;19.50;1.00;;;;;;5057495;28;20403;-85
2022/07/07 14:42:17;;;;;;;2.50;1.63;;;19.90;1.00;;;;;;5062357;28;20056;-87
2022/07/07 14:45:05;;;;;;;2.42;1.50;;;20.30;1.00;;;;;;5052602;28;20152;-88
2022/07/07 14:47:52;;;;;;;8.98;1.83;;;20.70;1.00;;;;;;5053181;28;20470;-83
2022/07/07 14:50:44;;;;;;;2.78;1.35;;;20.80;1.00;;;;;;5044541;28;20462;-84
2022/07/07 14:53:32;;;;;;;;;;;20.20;1.00;;;;;;5055506;28;20354;-85
2022/07/07 14:56:22;;;;;;;1.83;1.30;;;19.40;3.90;;;;;;5058761;28;19936;-84
2022/07/07 14:59:10;;;;;;;4.40;1.40;;;18.80;28.10;;;;;;5055701;28;20056;-84
2022/07/07 15:01:58;;;;;;;3.72;1.73;;;18.40;66.30;;;;;;5053323;28;20044;-83
2022/07/07 15:04:45;;;;;;;3.28;1.98;;;18.00;99.90;;;;;;5035316;28;20049;-87
2022/07/07 15:07:33;;;;;;;2.13;1.92;;;17.70;99.90;;;;;;5042352;28;20434;-86
2022/07/07 15:10:20;;;;;;;3.75;2.05;;;17.20;99.90;;;;;;5042043;28;20415;-84
2022/07/07 15:13:08;;;;;;;2.70;2.25;;;17.10;1.00;;;;;;5052420;28;20138;-83
2022/07/07 15:16:03;;;;;;;3.35;1.38;;;18.10;99.90;;;;;;5040345;28;20045;-85
2022/07/07 15:18:50;;;;;;;1.92;1.45;;;18.90;1.00;;;;;;5058228;28;20248;-87
2022/07/07 15:21:38;;;;;;;3.78;1.30;;;19.10;1.00;;;;;;5054698;28;20052;-83
2022/07/07 15:24:27;;;;;;;1.73;1.25;;;19.00;99.90;;;;;;5058639;28;20044;-83
2022/07/07 15:27:23;;;;;;;5.85;1.70;;;18.70;99.90;;;;;;5042810;28;20037;-84
2022/07/07 15:30:11;;;;;;;2.63;1.30;;;18.40;99.90;;;;;;5055908;28;20057;-84